Time,TemperatureF,DewpointF,PressureIn,WindDirection,WindDirectionDegrees,WindSpeedMPH,WindSpeedGustMPH,Humidity,HourlyPrecipIn,Conditions,Clouds,dailyrainin,SoftwareType,DateUTC
2013-03-29 00:00:00,37.0,33.8,30.21,SE,141,3.0,4.0,88,0.00,,,0.00,vanprod-2.3,2013-03-29 05:00:00,
2013-03-29 00:05:00,37.0,33.8,30.21,SE,141,2.0,5.0,88,0.00,,,0.00,vanprod-2.3,2013-03-29 05:05:00,
2013-03-29 00:10:00,37.0,33.8,30.21,SE,141,2.0,8.0,88,0.00,,,0.00,vanprod-2.3,2013-03-29 05:10:00,
2013-03-29 00:15:00,37.0,33.8,30.21,SE,144,3.0,3.0,88,0.00,,,0.00,vanprod-2.3,2013-03-29 05:15:00,
2013-03-29 00:20:00,37.0,33.8,30.21,SE,145,3.0,4.0,88,0.00,,,0.00,vanprod-2.3,2013-03-29 05:20:00,
2013-03-29 00:25:00,37.0,33.8,30.21,SSE,148,2.0,3.0,88,0.00,,,0.00,vanprod-2.3,2013-03-29 05:25:00,
2013-03-29 00:30:00,36.8,33.6,30.21,SSE,148,2.0,2.0,88,0.00,,,0.00,vanprod-2.3,2013-03-29 05:30:00,
2013-03-29 00:35:00,36.7,33.5,30.21,SSE,148,2.0,4.0,88,0.00,,,0.00,vanprod-2.3,2013-03-29 05:35:00,
2013-03-29 00:40:00,36.7,33.5,30.21,SSE,148,1.0,2.0,88,0.00,,,0.00,vanprod-2.3,2013-03-29 05:40:00,
2013-03-29 00:45:00,36.5,33.3,30.21,SSE,148,1.0,1.0,88,0.00,,,0.00,vanprod-2.3,2013-03-29 05:45:00,
2013-03-29 00:50:00,36.3,33.1,30.22,SSE,148,1.0,1.0,88,0.00,,,0.00,vanprod-2.3,2013-03-29 05:50:00,
2013-03-29 00:55:00,36.0,32.8,30.21,SSE,148,1.0,1.0,88,0.00,,,0.00,vanprod-2.3,2013-03-29 05:55:00,
2013-03-29 01:00:00,35.7,32.8,30.21,SSE,148,1.0,0.0,89,0.00,,,0.00,vanprod-2.3,2013-03-29 06:00:00,
2013-03-29 01:05:00,35.5,32.9,30.22,SSE,148,2.0,2.0,90,0.00,,,0.00,vanprod-2.3,2013-03-29 06:05:00,
2013-03-29 01:10:00,35.4,32.8,30.22,SSE,148,1.0,2.0,90,0.00,,,0.00,vanprod-2.3,2013-03-29 06:10:00,
2013-03-29 01:15:00,35.4,32.8,30.22,SSE,148,0.0,0.0,90,0.00,,,0.00,vanprod-2.3,2013-03-29 06:15:00,
2013-03-29 01:20:00,35.3,32.9,30.22,SSE,148,0.0,0.0,91,0.00,,,0.00,vanprod-2.3,2013-03-29 06:20:00,
2013-03-29 01:25:00,35.3,32.9,30.22,SSE,148,1.0,2.0,91,0.00,,,0.00,vanprod-2.3,2013-03-29 06:25:00,
2013-03-29 01:30:00,35.3,32.9,30.22,SSE,148,0.0,1.0,91,0.00,,,0.00,vanprod-2.3,2013-03-29 06:30:00,
2013-03-29 01:35:00,35.1,32.7,30.22,SSE,148,0.0,1.0,91,0.00,,,0.00,vanprod-2.3,2013-03-29 06:35:00,
2013-03-29 01:40:00,35.1,32.7,30.22,SSE,148,1.0,1.0,91,0.00,,,0.00,vanprod-2.3,2013-03-29 06:40:00,
2013-03-29 01:45:00,35.0,32.6,30.22,SSE,148,0.0,0.0,91,0.00,,,0.00,vanprod-2.3,2013-03-29 06:45:00,
2013-03-29 01:50:00,34.8,32.4,30.22,SSE,148,0.0,0.0,91,0.00,,,0.00,vanprod-2.3,2013-03-29 06:50:00,
2013-03-29 01:55:00,34.7,32.3,30.22,SSE,148,0.0,0.0,91,0.00,,,0.00,vanprod-2.3,2013-03-29 06:55:00,
2013-03-29 02:00:00,34.4,32.1,30.22,SSE,148,0.0,0.0,91,0.00,,,0.00,vanprod-2.3,2013-03-29 07:00:00,
2013-03-29 02:05:00,34.4,32.1,30.22,SSE,148,1.0,0.0,91,0.00,,,0.00,vanprod-2.3,2013-03-29 07:05:00,
2013-03-29 02:10:00,34.2,31.9,30.22,SSE,148,0.0,0.0,91,0.00,,,0.00,vanprod-2.3,2013-03-29 07:10:00,
2013-03-29 02:15:00,34.1,31.8,30.23,SSE,148,0.0,0.0,91,0.00,,,0.00,vanprod-2.3,2013-03-29 07:15:00,
2013-03-29 02:20:00,34.1,32.0,30.22,SSE,148,0.0,0.0,92,0.00,,,0.00,vanprod-2.3,2013-03-29 07:20:00,
2013-03-29 02:25:00,33.9,31.8,30.22,SSE,148,1.0,0.0,92,0.00,,,0.00,vanprod-2.3,2013-03-29 07:25:00,
2013-03-29 02:30:00,33.8,31.7,30.22,SSE,148,0.0,2.0,92,0.00,,,0.00,vanprod-2.3,2013-03-29 07:30:00,
2013-03-29 02:35:00,33.8,31.7,30.22,SSE,148,0.0,0.0,92,0.00,,,0.00,vanprod-2.3,2013-03-29 07:35:00,
2013-03-29 02:40:00,33.6,31.5,30.22,SSE,148,0.0,2.0,92,0.00,,,0.00,vanprod-2.3,2013-03-29 07:40:00,
2013-03-29 02:45:00,33.5,31.4,30.22,SSE,148,0.0,0.0,92,0.00,,,0.00,vanprod-2.3,2013-03-29 07:45:00,
2013-03-29 02:50:00,33.3,31.2,30.22,SSE,148,0.0,1.0,92,0.00,,,0.00,vanprod-2.3,2013-03-29 07:50:00,
2013-03-29 02:55:00,33.3,31.2,30.21,SSE,148,1.0,0.0,92,0.00,,,0.00,vanprod-2.3,2013-03-29 07:55:00,
2013-03-29 03:00:00,33.3,31.2,30.21,SSE,148,1.0,0.0,92,0.00,,,0.00,vanprod-2.3,2013-03-29 08:00:00,
2013-03-29 03:05:00,33.2,31.1,30.21,SSE,148,0.0,0.0,92,0.00,,,0.00,vanprod-2.3,2013-03-29 08:05:00,
2013-03-29 03:10:00,33.2,31.1,30.21,SSE,148,0.0,0.0,92,0.00,,,0.00,vanprod-2.3,2013-03-29 08:10:00,
2013-03-29 03:15:00,33.0,31.2,30.21,SSE,148,0.0,0.0,93,0.00,,,0.00,vanprod-2.3,2013-03-29 08:15:00,
2013-03-29 03:20:00,32.9,31.1,30.21,SSE,148,0.0,1.0,93,0.00,,,0.00,vanprod-2.3,2013-03-29 08:20:00,
2013-03-29 03:25:00,32.7,30.6,30.21,SSE,148,0.0,0.0,92,0.00,,,0.00,vanprod-2.3,2013-03-29 08:25:00,
2013-03-29 03:30:00,32.6,30.8,30.21,SSE,148,0.0,0.0,93,0.00,,,0.00,vanprod-2.3,2013-03-29 08:30:00,
2013-03-29 03:35:00,32.6,30.8,30.21,SSE,148,0.0,0.0,93,0.00,,,0.00,vanprod-2.3,2013-03-29 08:35:00,
2013-03-29 03:40:00,32.3,30.5,30.21,SSE,148,0.0,0.0,93,0.00,,,0.00,vanprod-2.3,2013-03-29 08:40:00,
2013-03-29 03:45:00,32.3,30.5,30.21,SSE,148,0.0,0.0,93,0.00,,,0.00,vanprod-2.3,2013-03-29 08:45:00,
2013-03-29 03:50:00,32.3,30.5,30.20,SSE,148,1.0,2.0,93,0.00,,,0.00,vanprod-2.3,2013-03-29 08:50:00,
2013-03-29 03:55:00,32.3,30.5,30.20,SSE,148,0.0,0.0,93,0.00,,,0.00,vanprod-2.3,2013-03-29 08:55:00,
2013-03-29 04:00:00,32.3,30.8,30.20,SSE,148,0.0,0.0,94,0.00,,,0.00,vanprod-2.3,2013-03-29 09:00:00,
2013-03-29 04:05:00,32.3,30.8,30.20,SSE,148,0.0,0.0,94,0.00,,,0.00,vanprod-2.3,2013-03-29 09:05:00,
2013-03-29 04:10:00,32.2,30.4,30.21,SSE,148,0.0,0.0,93,0.00,,,0.00,vanprod-2.3,2013-03-29 09:10:00,
2013-03-29 04:15:00,32.2,30.4,30.20,SSE,148,0.0,0.0,93,0.00,,,0.00,vanprod-2.3,2013-03-29 09:15:00,
2013-03-29 04:20:00,32.0,30.2,30.20,SSE,148,0.0,0.0,93,0.00,,,0.00,vanprod-2.3,2013-03-29 09:20:00,
2013-03-29 04:25:00,31.7,29.9,30.20,SSE,148,0.0,0.0,93,0.00,,,0.00,vanprod-2.3,2013-03-29 09:25:00,
2013-03-29 04:30:00,31.7,29.9,30.20,SSE,148,0.0,0.0,93,0.00,,,0.00,vanprod-2.3,2013-03-29 09:30:00,
2013-03-29 04:35:00,31.7,29.9,30.20,SSE,148,0.0,0.0,93,0.00,,,0.00,vanprod-2.3,2013-03-29 09:35:00,
2013-03-29 04:40:00,31.6,29.8,30.20,SSE,148,1.0,0.0,93,0.00,,,0.00,vanprod-2.3,2013-03-29 09:40:00,
2013-03-29 04:45:00,31.4,29.6,30.20,SSE,148,0.0,0.0,93,0.00,,,0.00,vanprod-2.3,2013-03-29 09:45:00,
2013-03-29 04:50:00,31.4,29.9,30.20,SSE,148,0.0,0.0,94,0.00,,,0.00,vanprod-2.3,2013-03-29 09:50:00,
2013-03-29 04:55:00,31.4,29.9,30.20,SSE,148,0.0,1.0,94,0.00,,,0.00,vanprod-2.3,2013-03-29 09:55:00,
2013-03-29 05:00:00,31.4,29.9,30.20,SSE,148,0.0,0.0,94,0.00,,,0.00,vanprod-2.3,2013-03-29 10:00:00,
2013-03-29 05:05:00,31.4,29.9,30.20,SSE,148,0.0,0.0,94,0.00,,,0.00,vanprod-2.3,2013-03-29 10:05:00,
2013-03-29 05:10:00,31.3,29.8,30.20,SSE,148,0.0,0.0,94,0.00,,,0.00,vanprod-2.3,2013-03-29 10:10:00,
2013-03-29 05:15:00,31.0,29.5,30.20,SSE,148,0.0,0.0,94,0.00,,,0.00,vanprod-2.3,2013-03-29 10:15:00,
2013-03-29 05:20:00,30.8,29.3,30.20,SSE,148,0.0,0.0,94,0.00,,,0.00,vanprod-2.3,2013-03-29 10:20:00,
2013-03-29 05:25:00,30.7,29.2,30.20,SSE,148,1.0,1.0,94,0.00,,,0.00,vanprod-2.3,2013-03-29 10:25:00,
2013-03-29 05:30:00,30.5,29.0,30.20,SSE,148,0.0,0.0,94,0.00,,,0.00,vanprod-2.3,2013-03-29 10:30:00,
2013-03-29 05:35:00,30.5,29.0,30.20,SSE,148,0.0,0.0,94,0.00,,,0.00,vanprod-2.3,2013-03-29 10:35:00,
2013-03-29 05:40:00,30.7,29.2,30.20,SSE,148,0.0,0.0,94,0.00,,,0.00,vanprod-2.3,2013-03-29 10:40:00,
2013-03-29 05:45:00,30.5,29.0,30.20,SSE,148,0.0,0.0,94,0.00,,,0.00,vanprod-2.3,2013-03-29 10:45:00,
2013-03-29 05:50:00,30.4,28.9,30.20,SSE,148,0.0,1.0,94,0.00,,,0.00,vanprod-2.3,2013-03-29 10:50:00,
2013-03-29 05:55:00,30.4,28.9,30.19,SSE,148,1.0,1.0,94,0.00,,,0.00,vanprod-2.3,2013-03-29 10:55:00,
2013-03-29 06:00:00,30.4,28.9,30.20,SSE,148,0.0,0.0,94,0.00,,,0.00,vanprod-2.3,2013-03-29 11:00:00,
2013-03-29 06:05:00,30.4,28.9,30.20,SSE,148,1.0,0.0,94,0.00,,,0.00,vanprod-2.3,2013-03-29 11:05:00,
2013-03-29 06:10:00,30.1,28.6,30.19,SSE,148,0.0,0.0,94,0.00,,,0.00,vanprod-2.3,2013-03-29 11:10:00,
2013-03-29 06:15:00,30.1,28.6,30.19,SSE,148,1.0,1.0,94,0.00,,,0.00,vanprod-2.3,2013-03-29 11:15:00,
2013-03-29 06:20:00,30.2,28.9,30.20,SSE,148,0.0,0.0,95,0.00,,,0.00,vanprod-2.3,2013-03-29 11:20:00,
2013-03-29 06:25:00,30.4,29.1,30.20,SSE,148,0.0,0.0,95,0.00,,,0.00,vanprod-2.3,2013-03-29 11:25:00,
2013-03-29 06:30:00,30.5,29.2,30.20,SSE,148,0.0,0.0,95,0.00,,,0.00,vanprod-2.3,2013-03-29 11:30:00,
2013-03-29 06:35:00,30.4,29.1,30.20,SSE,148,0.0,0.0,95,0.00,,,0.00,vanprod-2.3,2013-03-29 11:35:00,
2013-03-29 06:40:00,30.2,28.9,30.20,SSE,148,0.0,0.0,95,0.00,,,0.00,vanprod-2.3,2013-03-29 11:40:00,
2013-03-29 06:45:00,30.4,29.1,30.20,SSE,148,1.0,1.0,95,0.00,,,0.00,vanprod-2.3,2013-03-29 11:45:00,
2013-03-29 06:50:00,30.5,29.2,30.19,SSE,148,1.0,2.0,95,0.00,,,0.00,vanprod-2.3,2013-03-29 11:50:00,
2013-03-29 06:55:00,30.7,29.4,30.20,SSE,148,0.0,0.0,95,0.00,,,0.00,vanprod-2.3,2013-03-29 11:55:00,
2013-03-29 07:00:00,30.7,29.4,30.20,SSE,148,0.0,0.0,95,0.00,,,0.00,vanprod-2.3,2013-03-29 12:00:00,
2013-03-29 07:05:00,30.7,29.4,30.20,SSE,148,0.0,0.0,95,0.00,,,0.00,vanprod-2.3,2013-03-29 12:05:00,
2013-03-29 07:10:00,30.5,29.2,30.20,SSE,148,0.0,0.0,95,0.00,,,0.00,vanprod-2.3,2013-03-29 12:10:00,
2013-03-29 07:15:00,30.4,28.9,30.20,SSE,148,0.0,0.0,94,0.00,,,0.00,vanprod-2.3,2013-03-29 12:15:00,
2013-03-29 07:20:00,30.2,28.7,30.20,SSE,148,0.0,0.0,94,0.00,,,0.00,vanprod-2.3,2013-03-29 12:20:00,
2013-03-29 07:25:00,30.4,29.1,30.20,SSE,148,1.0,1.0,95,0.00,,,0.00,vanprod-2.3,2013-03-29 12:25:00,
2013-03-29 07:30:00,30.5,29.2,30.20,SSE,148,0.0,0.0,95,0.00,,,0.00,vanprod-2.3,2013-03-29 12:30:00,
2013-03-29 07:35:00,30.5,29.2,30.20,SSE,148,0.0,0.0,95,0.00,,,0.00,vanprod-2.3,2013-03-29 12:35:00,
2013-03-29 07:40:00,30.5,29.2,30.20,SSE,148,0.0,0.0,95,0.00,,,0.00,vanprod-2.3,2013-03-29 12:40:00,
2013-03-29 07:45:00,30.7,29.4,30.20,SSE,148,0.0,1.0,95,0.00,,,0.00,vanprod-2.3,2013-03-29 12:45:00,
2013-03-29 07:50:00,31.0,29.7,30.20,SSE,148,1.0,0.0,95,0.00,,,0.00,vanprod-2.3,2013-03-29 12:50:00,
2013-03-29 07:55:00,31.3,30.0,30.20,SSE,148,1.0,1.0,95,0.00,,,0.00,vanprod-2.3,2013-03-29 12:55:00,
2013-03-29 08:00:00,31.6,30.3,30.20,SSE,148,2.0,2.0,95,0.00,,,0.00,vanprod-2.3,2013-03-29 13:00:00,
2013-03-29 08:05:00,31.9,30.4,30.20,SSE,148,3.0,3.0,94,0.00,,,0.00,vanprod-2.3,2013-03-29 13:05:00,
2013-03-29 08:10:00,31.9,30.4,30.20,SSE,148,0.0,1.0,94,0.00,,,0.00,vanprod-2.3,2013-03-29 13:10:00,
2013-03-29 08:15:00,32.2,30.7,30.20,SSE,148,1.0,0.0,94,0.00,,,0.00,vanprod-2.3,2013-03-29 13:15:00,
2013-03-29 08:20:00,32.4,30.6,30.20,SSE,148,0.0,0.0,93,0.00,,,0.00,vanprod-2.3,2013-03-29 13:20:00,
2013-03-29 08:25:00,32.4,30.6,30.20,SSE,148,1.0,0.0,93,0.00,,,0.00,vanprod-2.3,2013-03-29 13:25:00,
2013-03-29 08:30:00,32.6,30.8,30.20,SSE,148,0.0,0.0,93,0.00,,,0.00,vanprod-2.3,2013-03-29 13:30:00,
2013-03-29 08:35:00,32.7,30.6,30.20,SSE,148,0.0,1.0,92,0.00,,,0.00,vanprod-2.3,2013-03-29 13:35:00,
2013-03-29 08:40:00,33.0,30.9,30.20,SSE,148,0.0,0.0,92,0.00,,,0.00,vanprod-2.3,2013-03-29 13:40:00,
2013-03-29 08:45:00,33.6,31.5,30.20,South,175,1.0,1.0,92,0.00,,,0.00,vanprod-2.3,2013-03-29 13:45:00,
2013-03-29 08:50:00,33.9,31.6,30.20,SSW,208,1.0,2.0,91,0.00,,,0.00,vanprod-2.3,2013-03-29 13:50:00,
2013-03-29 08:55:00,33.9,31.3,30.20,SSW,208,0.0,0.0,90,0.00,,,0.00,vanprod-2.3,2013-03-29 13:55:00,
2013-03-29 09:00:00,34.2,31.6,30.20,SSW,208,0.0,1.0,90,0.00,,,0.00,vanprod-2.3,2013-03-29 14:00:00,
2013-03-29 09:05:00,34.7,31.8,30.20,SSW,208,0.0,0.0,89,0.00,,,0.00,vanprod-2.3,2013-03-29 14:05:00,
2013-03-29 09:10:00,35.1,31.9,30.20,SSW,208,1.0,0.0,88,0.00,,,0.00,vanprod-2.3,2013-03-29 14:10:00,
2013-03-29 09:15:00,35.3,31.8,30.20,SSW,208,0.0,2.0,87,0.00,,,0.00,vanprod-2.3,2013-03-29 14:15:00,
2013-03-29 09:20:00,35.7,32.2,30.20,SSW,208,1.0,0.0,87,0.00,,,0.00,vanprod-2.3,2013-03-29 14:20:00,
2013-03-29 09:25:00,35.8,32.0,30.20,SSW,208,1.0,0.0,86,0.00,,,0.00,vanprod-2.3,2013-03-29 14:25:00,
2013-03-29 09:30:00,36.3,32.5,30.20,SSW,208,0.0,0.0,86,0.00,,,0.00,vanprod-2.3,2013-03-29 14:30:00,
2013-03-29 09:35:00,36.7,32.6,30.20,SSW,208,1.0,3.0,85,0.00,,,0.00,vanprod-2.3,2013-03-29 14:35:00,
2013-03-29 09:40:00,37.3,32.9,30.20,SSW,208,1.0,0.0,84,0.00,,,0.00,vanprod-2.3,2013-03-29 14:40:00,
2013-03-29 09:45:00,37.7,33.0,30.20,SSW,208,1.0,1.0,83,0.00,,,0.00,vanprod-2.3,2013-03-29 14:45:00,
2013-03-29 09:50:00,38.1,33.1,30.20,SSW,208,1.0,0.0,82,0.00,,,0.00,vanprod-2.3,2013-03-29 14:50:00,
2013-03-29 09:55:00,38.4,33.1,30.20,SSW,208,0.0,1.0,81,0.00,,,0.00,vanprod-2.3,2013-03-29 14:55:00,
2013-03-29 10:00:00,39.0,33.4,30.20,SSW,208,0.0,0.0,80,0.00,,,0.00,vanprod-2.3,2013-03-29 15:00:00,
2013-03-29 10:05:00,39.3,33.3,30.20,SSW,208,0.0,1.0,79,0.00,,,0.00,vanprod-2.3,2013-03-29 15:05:00,
2013-03-29 10:10:00,39.4,33.4,30.20,SSW,208,0.0,1.0,79,0.00,,,0.00,vanprod-2.3,2013-03-29 15:10:00,
2013-03-29 10:15:00,39.6,33.6,30.20,SSW,208,0.0,0.0,79,0.00,,,0.00,vanprod-2.3,2013-03-29 15:15:00,
2013-03-29 10:20:00,40.0,34.0,30.19,SSW,208,0.0,0.0,79,0.00,,,0.00,vanprod-2.3,2013-03-29 15:20:00,
2013-03-29 10:25:00,40.4,34.1,30.19,SSW,208,0.0,0.0,78,0.00,,,0.00,vanprod-2.3,2013-03-29 15:25:00,
2013-03-29 10:30:00,40.6,34.3,30.19,SSW,208,0.0,2.0,78,0.00,,,0.00,vanprod-2.3,2013-03-29 15:30:00,
2013-03-29 10:35:00,40.0,33.7,30.19,SSW,208,1.0,2.0,78,0.00,,,0.00,vanprod-2.3,2013-03-29 15:35:00,
2013-03-29 10:40:00,39.7,33.7,30.18,SSW,208,1.0,2.0,79,0.00,,,0.00,vanprod-2.3,2013-03-29 15:40:00,
2013-03-29 10:45:00,39.4,33.8,30.18,SSW,208,1.0,0.0,80,0.00,,,0.00,vanprod-2.3,2013-03-29 15:45:00,
2013-03-29 10:50:00,39.6,33.6,30.18,SSW,208,2.0,0.0,79,0.00,,,0.00,vanprod-2.3,2013-03-29 15:50:00,
2013-03-29 10:55:00,40.0,34.0,30.18,SSW,208,2.0,2.0,79,0.00,,,0.00,vanprod-2.3,2013-03-29 15:55:00,
2013-03-29 11:00:00,40.4,34.1,30.18,SSW,208,3.0,3.0,78,0.00,,,0.00,vanprod-2.3,2013-03-29 16:00:00,
2013-03-29 11:05:00,40.1,34.1,30.18,SSW,208,2.0,3.0,79,0.00,,,0.00,vanprod-2.3,2013-03-29 16:05:00,
2013-03-29 11:10:00,40.6,34.9,30.18,SSW,208,1.0,3.0,80,0.00,,,0.00,vanprod-2.3,2013-03-29 16:10:00,
2013-03-29 11:15:00,40.8,34.8,30.18,SSW,208,0.0,3.0,79,0.00,,,0.00,vanprod-2.3,2013-03-29 16:15:00,
2013-03-29 11:20:00,41.1,34.8,30.18,SSW,208,1.0,0.0,78,0.00,,,0.00,vanprod-2.3,2013-03-29 16:20:00,
2013-03-29 11:25:00,41.6,35.3,30.18,SSW,208,2.0,3.0,78,0.00,,,0.00,vanprod-2.3,2013-03-29 16:25:00,
2013-03-29 11:30:00,41.7,35.4,30.18,SSW,208,1.0,2.0,78,0.00,,,0.00,vanprod-2.3,2013-03-29 16:30:00,
2013-03-29 11:35:00,41.6,34.9,30.18,SSW,208,2.0,2.0,77,0.00,,,0.00,vanprod-2.3,2013-03-29 16:35:00,
2013-03-29 11:40:00,41.8,34.8,30.17,SSW,208,3.0,3.0,76,0.00,,,0.00,vanprod-2.3,2013-03-29 16:40:00,
2013-03-29 11:45:00,42.0,35.0,30.17,SSW,208,3.0,3.0,76,0.00,,,0.00,vanprod-2.3,2013-03-29 16:45:00,
2013-03-29 11:50:00,42.4,35.4,30.17,SSW,208,1.0,3.0,76,0.00,,,0.00,vanprod-2.3,2013-03-29 16:50:00,
2013-03-29 11:55:00,42.4,35.1,30.17,SSW,208,3.0,3.0,75,0.00,,,0.00,vanprod-2.3,2013-03-29 16:55:00,
2013-03-29 12:00:00,42.4,35.7,30.17,SSW,208,3.0,3.0,77,0.00,,,0.00,vanprod-2.3,2013-03-29 17:00:00,
2013-03-29 12:05:00,42.8,36.1,30.17,SSW,208,1.0,2.0,77,0.00,,,0.00,vanprod-2.3,2013-03-29 17:05:00,
2013-03-29 12:10:00,42.8,36.1,30.17,SSW,208,1.0,1.0,77,0.00,,,0.00,vanprod-2.3,2013-03-29 17:10:00,
2013-03-29 12:15:00,42.8,36.1,30.17,SSW,208,2.0,3.0,77,0.00,,,0.00,vanprod-2.3,2013-03-29 17:15:00,
2013-03-29 12:20:00,42.6,35.6,30.16,SSW,208,3.0,4.0,76,0.00,,,0.00,vanprod-2.3,2013-03-29 17:20:00,
2013-03-29 12:25:00,42.8,36.4,30.16,SSW,208,2.0,3.0,78,0.00,,,0.00,vanprod-2.3,2013-03-29 17:25:00,
2013-03-29 12:30:00,43.0,36.6,30.16,SSW,207,1.0,2.0,78,0.00,,,0.00,vanprod-2.3,2013-03-29 17:30:00,
2013-03-29 12:35:00,43.4,36.7,30.16,SSW,208,1.0,3.0,77,0.00,,,0.00,vanprod-2.3,2013-03-29 17:35:00,
2013-03-29 12:40:00,43.4,36.7,30.16,SSW,208,3.0,3.0,77,0.00,,,0.00,vanprod-2.3,2013-03-29 17:40:00,
2013-03-29 12:45:00,43.4,36.7,30.16,SSW,208,1.0,1.0,77,0.00,,,0.00,vanprod-2.3,2013-03-29 17:45:00,
2013-03-29 12:50:00,43.6,36.2,30.16,SSW,208,1.0,0.0,75,0.00,,,0.00,vanprod-2.3,2013-03-29 17:50:00,
2013-03-29 12:55:00,44.0,36.6,30.16,SSW,208,1.0,0.0,75,0.00,,,0.00,vanprod-2.3,2013-03-29 17:55:00,
2013-03-29 13:00:00,44.1,36.4,30.16,SSW,208,1.0,0.0,74,0.00,,,0.00,vanprod-2.3,2013-03-29 18:00:00,
2013-03-29 13:05:00,44.4,36.6,30.15,SSW,207,2.0,2.0,74,0.00,,,0.00,vanprod-2.3,2013-03-29 18:05:00,
2013-03-29 13:10:00,44.7,37.3,30.15,SSW,207,2.0,3.0,75,0.00,,,0.00,vanprod-2.3,2013-03-29 18:10:00,
2013-03-29 13:15:00,44.3,36.9,30.15,SSW,206,2.0,2.0,75,0.00,,,0.00,vanprod-2.3,2013-03-29 18:15:00,
2013-03-29 13:20:00,44.4,37.3,30.15,SSW,206,2.0,2.0,76,0.00,,,0.00,vanprod-2.3,2013-03-29 18:20:00,
2013-03-29 13:25:00,44.4,37.0,30.15,SSW,206,2.0,3.0,75,0.00,,,0.00,vanprod-2.3,2013-03-29 18:25:00,
2013-03-29 13:30:00,44.3,36.5,30.14,SSW,206,3.0,3.0,74,0.00,,,0.00,vanprod-2.3,2013-03-29 18:30:00,
2013-03-29 13:35:00,44.4,37.0,30.14,SSW,206,3.0,6.0,75,0.00,,,0.00,vanprod-2.3,2013-03-29 18:35:00,
2013-03-29 13:40:00,44.7,36.9,30.14,SSW,206,1.0,3.0,74,0.00,,,0.00,vanprod-2.3,2013-03-29 18:40:00,
2013-03-29 13:45:00,44.7,37.3,30.14,SSW,206,2.0,2.0,75,0.00,,,0.00,vanprod-2.3,2013-03-29 18:45:00,
2013-03-29 13:50:00,44.6,37.5,30.14,SSW,206,1.0,2.0,76,0.00,,,0.00,vanprod-2.3,2013-03-29 18:50:00,
2013-03-29 13:55:00,44.7,37.6,30.13,SSW,206,1.0,3.0,76,0.00,,,0.00,vanprod-2.3,2013-03-29 18:55:00,
2013-03-29 14:00:00,45.0,37.6,30.13,SSW,206,1.0,3.0,75,0.00,,,0.00,vanprod-2.3,2013-03-29 19:00:00,
2013-03-29 14:05:00,44.9,37.5,30.13,SSW,206,3.0,3.0,75,0.00,,,0.00,vanprod-2.3,2013-03-29 19:05:00,
2013-03-29 14:10:00,44.7,37.3,30.13,SSW,206,2.0,2.0,75,0.00,,,0.00,vanprod-2.3,2013-03-29 19:10:00,
2013-03-29 14:15:00,44.6,37.2,30.12,SSW,206,2.0,2.0,75,0.00,,,0.00,vanprod-2.3,2013-03-29 19:15:00,
2013-03-29 14:20:00,44.6,37.5,30.12,SSW,206,1.0,1.0,76,0.00,,,0.00,vanprod-2.3,2013-03-29 19:20:00,
2013-03-29 14:25:00,44.7,37.6,30.12,SSW,206,3.0,3.0,76,0.00,,,0.00,vanprod-2.3,2013-03-29 19:25:00,
2013-03-29 14:30:00,44.4,37.7,30.12,SSW,206,2.0,6.0,77,0.00,,,0.00,vanprod-2.3,2013-03-29 19:30:00,
2013-03-29 14:35:00,44.1,37.4,30.12,SSW,202,4.0,7.0,77,0.00,,,0.00,vanprod-2.3,2013-03-29 19:35:00,
2013-03-29 14:40:00,44.1,37.7,30.11,SSW,196,4.0,7.0,78,0.00,,,0.00,vanprod-2.3,2013-03-29 19:40:00,
2013-03-29 14:45:00,44.0,37.6,30.11,South,191,3.0,3.0,78,0.00,,,0.00,vanprod-2.3,2013-03-29 19:45:00,
2013-03-29 14:50:00,44.0,37.9,30.11,South,191,3.0,3.0,79,0.00,,,0.00,vanprod-2.3,2013-03-29 19:50:00,
2013-03-29 14:55:00,44.0,38.2,30.11,South,186,4.0,6.0,80,0.00,,,0.00,vanprod-2.3,2013-03-29 19:55:00,
2013-03-29 15:00:00,44.3,38.5,30.10,South,186,2.0,3.0,80,0.00,,,0.00,vanprod-2.3,2013-03-29 20:00:00,
2013-03-29 15:05:00,44.6,38.8,30.10,South,186,3.0,8.0,80,0.00,,,0.00,vanprod-2.3,2013-03-29 20:05:00,
2013-03-29 15:10:00,44.7,38.9,30.10,South,179,3.0,4.0,80,0.00,,,0.00,vanprod-2.3,2013-03-29 20:10:00,
2013-03-29 15:15:00,44.9,38.8,30.09,South,179,4.0,6.0,79,0.00,,,0.00,vanprod-2.3,2013-03-29 20:15:00,
2013-03-29 15:20:00,45.2,39.4,30.09,South,179,2.0,4.0,80,0.00,,,0.00,vanprod-2.3,2013-03-29 20:20:00,
2013-03-29 15:25:00,45.5,39.7,30.09,South,179,2.0,2.0,80,0.00,,,0.00,vanprod-2.3,2013-03-29 20:25:00,
2013-03-29 15:30:00,45.7,39.6,30.09,South,179,3.0,3.0,79,0.00,,,0.00,vanprod-2.3,2013-03-29 20:30:00,
2013-03-29 15:35:00,46.2,40.1,30.08,South,179,1.0,3.0,79,0.00,,,0.00,vanprod-2.3,2013-03-29 20:35:00,
2013-03-29 15:40:00,46.3,40.2,30.08,South,179,2.0,2.0,79,0.00,,,0.00,vanprod-2.3,2013-03-29 20:40:00,
2013-03-29 15:45:00,46.6,40.4,30.08,South,179,2.0,6.0,79,0.00,,,0.00,vanprod-2.3,2013-03-29 20:45:00,
2013-03-29 15:50:00,46.6,40.1,30.08,South,179,3.0,3.0,78,0.00,,,0.00,vanprod-2.3,2013-03-29 20:50:00,
2013-03-29 15:55:00,46.6,40.1,30.07,South,179,2.0,2.0,78,0.00,,,0.00,vanprod-2.3,2013-03-29 20:55:00,
2013-03-29 16:00:00,46.9,40.4,30.07,South,179,3.0,3.0,78,0.00,,,0.00,vanprod-2.3,2013-03-29 21:00:00,
2013-03-29 16:05:00,47.1,40.6,30.07,South,179,2.0,0.0,78,0.00,,,0.00,vanprod-2.3,2013-03-29 21:05:00,
2013-03-29 16:10:00,47.2,40.7,30.07,South,179,4.0,4.0,78,0.00,,,0.00,vanprod-2.3,2013-03-29 21:10:00,
2013-03-29 16:15:00,47.4,40.9,30.06,South,179,2.0,3.0,78,0.00,,,0.00,vanprod-2.3,2013-03-29 21:15:00,
2013-03-29 16:20:00,47.4,40.9,30.06,South,179,3.0,3.0,78,0.00,,,0.00,vanprod-2.3,2013-03-29 21:20:00,
2013-03-29 16:25:00,47.5,41.3,30.06,South,179,3.0,3.0,79,0.00,,,0.00,vanprod-2.3,2013-03-29 21:25:00,
2013-03-29 16:30:00,47.4,41.2,30.06,South,179,4.0,4.0,79,0.00,,,0.00,vanprod-2.3,2013-03-29 21:30:00,
2013-03-29 16:35:00,47.4,41.2,30.06,South,179,3.0,3.0,79,0.00,,,0.00,vanprod-2.3,2013-03-29 21:35:00,
2013-03-29 16:40:00,47.5,41.6,30.06,South,179,3.0,3.0,80,0.00,,,0.00,vanprod-2.3,2013-03-29 21:40:00,
2013-03-29 16:45:00,47.5,41.3,30.06,South,179,2.0,2.0,79,0.00,,,0.00,vanprod-2.3,2013-03-29 21:45:00,
2013-03-29 16:50:00,47.7,41.5,30.05,South,179,1.0,2.0,79,0.00,,,0.00,vanprod-2.3,2013-03-29 21:50:00,
2013-03-29 16:55:00,47.8,41.6,30.05,South,179,2.0,2.0,79,0.00,,,0.00,vanprod-2.3,2013-03-29 21:55:00,
2013-03-29 17:00:00,48.0,41.8,30.05,South,179,0.0,0.0,79,0.00,,,0.00,vanprod-2.3,2013-03-29 22:00:00,
2013-03-29 17:05:00,48.1,41.6,30.05,South,179,0.0,0.0,78,0.00,,,0.00,vanprod-2.3,2013-03-29 22:05:00,
2013-03-29 17:10:00,48.0,41.5,30.05,South,179,2.0,0.0,78,0.00,,,0.00,vanprod-2.3,2013-03-29 22:10:00,
2013-03-29 17:15:00,47.4,41.2,30.05,South,179,1.0,1.0,79,0.00,,,0.00,vanprod-2.3,2013-03-29 22:15:00,
2013-03-29 17:20:00,47.1,41.3,30.05,South,179,3.0,3.0,80,0.00,,,0.00,vanprod-2.3,2013-03-29 22:20:00,
2013-03-29 17:25:00,47.2,41.7,30.05,South,179,1.0,3.0,81,0.00,,,0.00,vanprod-2.3,2013-03-29 22:25:00,
2013-03-29 17:30:00,47.2,41.7,30.04,South,179,3.0,3.0,81,0.00,,,0.00,vanprod-2.3,2013-03-29 22:30:00,
2013-03-29 17:35:00,47.4,41.6,30.04,South,179,2.0,0.0,80,0.00,,,0.00,vanprod-2.3,2013-03-29 22:35:00,
2013-03-29 17:40:00,47.2,41.4,30.04,South,179,2.0,3.0,80,0.00,,,0.00,vanprod-2.3,2013-03-29 22:40:00,
2013-03-29 17:45:00,47.4,41.6,30.04,South,179,2.0,2.0,80,0.00,,,0.00,vanprod-2.3,2013-03-29 22:45:00,
2013-03-29 17:50:00,47.4,41.6,30.04,South,179,1.0,2.0,80,0.00,,,0.00,vanprod-2.3,2013-03-29 22:50:00,
2013-03-29 17:55:00,47.5,41.6,30.04,South,179,1.0,2.0,80,0.00,,,0.00,vanprod-2.3,2013-03-29 22:55:00,
2013-03-29 18:00:00,47.7,41.5,30.03,South,179,1.0,0.0,79,0.00,,,0.00,vanprod-2.3,2013-03-29 23:00:00,
2013-03-29 18:05:00,47.8,41.3,30.03,South,179,0.0,0.0,78,0.00,,,0.00,vanprod-2.3,2013-03-29 23:05:00,
2013-03-29 18:10:00,48.0,41.5,30.03,South,179,0.0,2.0,78,0.00,,,0.00,vanprod-2.3,2013-03-29 23:10:00,
2013-03-29 18:15:00,48.1,41.2,30.03,South,179,0.0,0.0,77,0.00,,,0.00,vanprod-2.3,2013-03-29 23:15:00,
2013-03-29 18:20:00,48.3,41.4,30.03,South,179,1.0,1.0,77,0.00,,,0.00,vanprod-2.3,2013-03-29 23:20:00,
2013-03-29 18:25:00,48.4,41.5,30.02,South,179,0.0,0.0,77,0.00,,,0.00,vanprod-2.3,2013-03-29 23:25:00,
2013-03-29 18:30:00,48.7,41.5,30.02,South,179,0.0,0.0,76,0.00,,,0.00,vanprod-2.3,2013-03-29 23:30:00,
2013-03-29 18:35:00,49.1,41.5,30.02,South,179,0.0,4.0,75,0.00,,,0.00,vanprod-2.3,2013-03-29 23:35:00,
2013-03-29 18:40:00,49.7,41.8,30.02,South,179,1.0,0.0,74,0.00,,,0.00,vanprod-2.3,2013-03-29 23:40:00,
2013-03-29 18:45:00,50.3,42.3,30.02,South,179,1.0,0.0,74,0.00,,,0.00,vanprod-2.3,2013-03-29 23:45:00,
2013-03-29 18:50:00,50.8,42.5,30.02,South,179,3.0,5.0,73,0.00,,,0.00,vanprod-2.3,2013-03-29 23:50:00,
2013-03-29 18:55:00,50.8,42.1,30.02,South,179,4.0,4.0,72,0.00,,,0.00,vanprod-2.3,2013-03-29 23:55:00,
2013-03-29 19:00:00,50.6,41.9,30.02,South,179,2.0,2.0,72,0.00,,,0.00,vanprod-2.3,2013-03-30 00:00:00,
2013-03-29 19:05:00,50.5,41.8,30.02,South,179,4.0,4.0,72,0.00,,,0.00,vanprod-2.3,2013-03-30 00:05:00,
2013-03-29 19:10:00,50.3,42.0,30.02,South,179,2.0,2.0,73,0.00,,,0.00,vanprod-2.3,2013-03-30 00:10:00,
2013-03-29 19:15:00,50.0,41.7,30.02,South,179,2.0,4.0,73,0.00,,,0.00,vanprod-2.3,2013-03-30 00:15:00,
2013-03-29 19:20:00,49.9,42.0,30.02,South,179,2.0,2.0,74,0.00,,,0.00,vanprod-2.3,2013-03-30 00:20:00,
2013-03-29 19:25:00,49.7,41.8,30.01,South,178,3.0,3.0,74,0.00,,,0.00,vanprod-2.3,2013-03-30 00:25:00,
2013-03-29 19:30:00,49.6,41.7,30.01,South,179,3.0,5.0,74,0.00,,,0.00,vanprod-2.3,2013-03-30 00:30:00,
2013-03-29 19:35:00,49.3,41.4,30.01,South,178,2.0,2.0,74,0.00,,,0.00,vanprod-2.3,2013-03-30 00:35:00,
2013-03-29 19:40:00,49.1,41.5,30.01,South,178,2.0,2.0,75,0.00,,,0.00,vanprod-2.3,2013-03-30 00:40:00,
2013-03-29 19:45:00,49.0,41.4,30.01,South,178,2.0,4.0,75,0.00,,,0.00,vanprod-2.3,2013-03-30 00:45:00,
2013-03-29 19:50:00,49.0,41.4,30.01,South,178,3.0,5.0,75,0.00,,,0.00,vanprod-2.3,2013-03-30 00:50:00,
2013-03-29 19:55:00,48.9,41.3,30.01,South,178,2.0,0.0,75,0.00,,,0.00,vanprod-2.3,2013-03-30 00:55:00,
2013-03-29 20:00:00,49.0,41.1,30.01,South,178,3.0,3.0,74,0.00,,,0.00,vanprod-2.3,2013-03-30 01:00:00,
2013-03-29 20:05:00,49.0,41.1,30.01,South,178,1.0,1.0,74,0.00,,,0.00,vanprod-2.3,2013-03-30 01:05:00,
2013-03-29 20:10:00,48.9,41.0,30.00,South,178,2.0,2.0,74,0.00,,,0.00,vanprod-2.3,2013-03-30 01:10:00,
2013-03-29 20:15:00,48.3,40.4,30.00,South,178,0.0,0.0,74,0.00,,,0.00,vanprod-2.3,2013-03-30 01:15:00,
2013-03-29 20:20:00,47.7,39.8,30.00,South,178,1.0,1.0,74,0.00,,,0.00,vanprod-2.3,2013-03-30 01:20:00,
2013-03-29 20:25:00,47.1,39.9,30.00,South,178,1.0,0.0,76,0.00,,,0.00,vanprod-2.3,2013-03-30 01:25:00,
2013-03-29 20:30:00,46.8,40.0,30.00,South,178,1.0,0.0,77,0.00,,,0.00,vanprod-2.3,2013-03-30 01:30:00,
2013-03-29 20:35:00,46.5,39.7,30.00,South,178,0.0,1.0,77,0.00,,,0.00,vanprod-2.3,2013-03-30 01:35:00,
2013-03-29 20:40:00,46.3,39.8,30.00,South,178,0.0,0.0,78,0.00,,,0.00,vanprod-2.3,2013-03-30 01:40:00,
2013-03-29 20:45:00,46.2,39.7,30.00,South,178,1.0,2.0,78,0.00,,,0.00,vanprod-2.3,2013-03-30 01:45:00,
2013-03-29 20:50:00,46.0,39.9,30.00,South,178,2.0,2.0,79,0.00,,,0.00,vanprod-2.3,2013-03-30 01:50:00,
2013-03-29 20:55:00,45.9,39.8,30.00,South,178,1.0,2.0,79,0.00,,,0.00,vanprod-2.3,2013-03-30 01:55:00,
2013-03-29 21:00:00,45.6,39.5,30.00,South,178,0.0,1.0,79,0.00,,,0.00,vanprod-2.3,2013-03-30 02:00:00,
2013-03-29 21:05:00,45.7,39.6,30.00,South,178,1.0,1.0,79,0.00,,,0.00,vanprod-2.3,2013-03-30 02:05:00,
2013-03-29 21:10:00,45.7,39.6,30.00,South,178,2.0,2.0,79,0.00,,,0.00,vanprod-2.3,2013-03-30 02:10:00,
2013-03-29 21:15:00,45.6,39.5,30.00,South,178,1.0,0.0,79,0.00,,,0.00,vanprod-2.3,2013-03-30 02:15:00,
2013-03-29 21:20:00,45.6,39.5,30.00,South,178,1.0,2.0,79,0.00,,,0.00,vanprod-2.3,2013-03-30 02:20:00,
2013-03-29 21:25:00,45.6,39.5,30.00,South,178,2.0,2.0,79,0.00,,,0.00,vanprod-2.3,2013-03-30 02:25:00,
2013-03-29 21:30:00,45.6,39.8,30.00,South,178,1.0,2.0,80,0.00,,,0.00,vanprod-2.3,2013-03-30 02:30:00,
2013-03-29 21:35:00,45.5,39.7,30.00,South,178,1.0,1.0,80,0.00,,,0.00,vanprod-2.3,2013-03-30 02:35:00,
2013-03-29 21:40:00,45.6,39.8,30.00,South,178,2.0,2.0,80,0.00,,,0.00,vanprod-2.3,2013-03-30 02:40:00,
2013-03-29 21:45:00,45.6,39.8,30.00,South,178,2.0,2.0,80,0.00,,,0.00,vanprod-2.3,2013-03-30 02:45:00,
2013-03-29 21:50:00,45.3,39.5,30.00,South,178,2.0,4.0,80,0.00,,,0.00,vanprod-2.3,2013-03-30 02:50:00,
2013-03-29 21:55:00,45.3,39.5,29.99,South,178,2.0,3.0,80,0.00,,,0.00,vanprod-2.3,2013-03-30 02:55:00,
2013-03-29 22:00:00,45.2,39.4,29.99,South,178,3.0,3.0,80,0.00,,,0.00,vanprod-2.3,2013-03-30 03:00:00,
2013-03-29 22:05:00,45.2,39.4,29.99,South,178,2.0,2.0,80,0.00,,,0.00,vanprod-2.3,2013-03-30 03:05:00,
2013-03-29 22:10:00,45.0,39.2,29.99,South,178,2.0,2.0,80,0.00,,,0.00,vanprod-2.3,2013-03-30 03:10:00,
2013-03-29 22:15:00,45.0,39.2,29.99,South,178,2.0,2.0,80,0.00,,,0.00,vanprod-2.3,2013-03-30 03:15:00,
2013-03-29 22:20:00,45.2,39.4,29.98,South,178,2.0,3.0,80,0.00,,,0.00,vanprod-2.3,2013-03-30 03:20:00,
2013-03-29 22:25:00,45.3,39.5,29.98,South,178,3.0,8.0,80,0.00,,,0.00,vanprod-2.3,2013-03-30 03:25:00,
2013-03-29 22:30:00,45.5,39.4,29.98,South,178,1.0,1.0,79,0.00,,,0.00,vanprod-2.3,2013-03-30 03:30:00,
2013-03-29 22:35:00,45.7,39.2,29.98,South,178,2.0,3.0,78,0.00,,,0.00,vanprod-2.3,2013-03-30 03:35:00,
2013-03-29 22:40:00,45.7,39.2,29.98,South,176,4.0,5.0,78,0.00,,,0.00,vanprod-2.3,2013-03-30 03:40:00,
2013-03-29 22:45:00,45.7,39.2,29.98,South,176,3.0,7.0,78,0.00,,,0.00,vanprod-2.3,2013-03-30 03:45:00,
2013-03-29 22:50:00,45.7,39.2,29.98,South,177,4.0,4.0,78,0.00,,,0.00,vanprod-2.3,2013-03-30 03:50:00,
2013-03-29 22:55:00,45.6,39.1,29.98,South,176,4.0,4.0,78,0.00,,,0.00,vanprod-2.3,2013-03-30 03:55:00,
2013-03-29 23:00:00,45.2,38.8,29.98,South,175,4.0,5.0,78,0.00,,,0.00,vanprod-2.3,2013-03-30 04:00:00,
2013-03-29 23:05:00,44.9,38.5,29.98,South,175,4.0,4.0,78,0.00,,,0.00,vanprod-2.3,2013-03-30 04:05:00,
2013-03-29 23:10:00,44.6,38.5,29.97,South,175,5.0,5.0,79,0.00,,,0.00,vanprod-2.3,2013-03-30 04:10:00,
2013-03-29 23:15:00,44.3,38.2,29.97,South,174,4.0,4.0,79,0.00,,,0.00,vanprod-2.3,2013-03-30 04:15:00,
2013-03-29 23:20:00,44.0,38.2,29.97,South,174,3.0,6.0,80,0.00,,,0.00,vanprod-2.3,2013-03-30 04:20:00,
2013-03-29 23:25:00,43.7,37.9,29.96,South,174,3.0,3.0,80,0.00,,,0.00,vanprod-2.3,2013-03-30 04:25:00,
2013-03-29 23:30:00,43.4,38.0,29.96,South,174,3.0,5.0,81,0.00,,,0.00,vanprod-2.3,2013-03-30 04:30:00,
2013-03-29 23:35:00,43.1,37.7,29.95,South,174,4.0,6.0,81,0.00,,,0.00,vanprod-2.3,2013-03-30 04:35:00,
2013-03-29 23:40:00,43.0,37.6,29.95,South,174,4.0,4.0,81,0.00,,,0.00,vanprod-2.3,2013-03-30 04:40:00,
2013-03-29 23:45:00,42.7,37.6,29.95,South,174,3.0,7.0,82,0.00,,,0.00,vanprod-2.3,2013-03-30 04:45:00,
2013-03-29 23:50:00,42.6,37.5,29.95,South,176,3.0,4.0,82,0.00,,,0.00,vanprod-2.3,2013-03-30 04:50:00,
2013-03-29 23:55:00,42.6,37.8,29.94,South,178,4.0,6.0,83,0.00,,,0.00,vanprod-2.3,2013-03-30 04:55:00,